Terminal Aerodrome Forecast
Issued by NWS St Louis, MO

Home | Current Version | Previous Version | Text Only | Print | Product List | Glossary Off
Versions: 1 2 3 4 5 6 7 8 9 10 11 12 13 14 15

973
FTUS43 KLSX 232051 AAA
TAFCOU
TAF AMD
KCOU 232051Z 2321/2418 17014G24KT P6SM SKC
     FM240300 17013G18KT P6SM FEW250 WS020/19050KT
     FM241400 18015G25KT P6SM SCT250=

USA.gov is the U.S. government's official web portal to all federal, state and local government web resources and services.